FW3023 West Babylon NY US current weather conditions

sailwx.info

Wind from 005 at 6 knots gusting 10

Air temperature 6.1° C
Dewpoint -5.5° C

Last reported at 2019-Dec-05 16:08 UTC.
Time now 2019-Dec-05 17:15 UTC

Location: N 40°42' W 073°20'.
View on Google Maps.

See reports from other nearby stations

  
Tides and Currents Weather Stations Pressure Air Temp Water Temp Dewpoint Dewpoint Depression Visibility Wind Speed Wind Dir Waves Ship Positions
date/time (UTC)wind fromknots sea level pressurealtimeterstation pressurevisibilityair tempwater tempwave heightnotes
2019-Dec-05 16:08 005 6 gusting 10 6.1
2019-Dec-05 16:03 263 4 gusting 8 6.1
2019-Dec-05 15:58 188 3 gusting 4 6.1
2019-Dec-05 15:53 298 6 gusting 10 6.1
2019-Dec-05 15:48 238 1 gusting 2 6.1
2019-Dec-05 15:43 270 9 gusting 13 6.1
2019-Dec-05 15:38 269 2 gusting 6 6.1
2019-Dec-05 15:33 322 4 gusting 6 6.1
2019-Dec-05 15:28 306 2 gusting 6 6.1
2019-Dec-05 15:23 225 1 gusting 4 6.1
2019-Dec-05 15:18 269 5 gusting 6 6.1
2019-Dec-05 15:13 325 2 gusting 4 5.6
2019-Dec-05 15:08 033 5 gusting 6 5.6
2019-Dec-05 15:03 056 3 gusting 4 5.6
2019-Dec-05 14:58 003 2 gusting 4 5.6
2019-Dec-05 14:53 305 6 gusting 10 5.6
2019-Dec-05 14:48 349 6 gusting 10 5.6
2019-Dec-05 14:43 267 2 gusting 4 5.6
2019-Dec-05 14:38 262 1 gusting 2 5.6
2019-Dec-05 14:33 231 5 gusting 6 5.6
2019-Dec-05 14:28 243 3 gusting 4 5.0
2019-Dec-05 14:23 301 3 gusting 8 5.0
2019-Dec-05 14:18 222 2 gusting 4 5.0
2019-Dec-05 14:13 196 8 gusting 10 5.0
2019-Dec-05 14:08 282 0 gusting 2 5.0
2019-Dec-05 14:03 295 3 gusting 6 4.4
2019-Dec-05 13:58 249 6 gusting 6 4.4
2019-Dec-05 13:53 242 4.4
2019-Dec-05 13:48 233 5 gusting 8 3.9
2019-Dec-05 13:43 226 2 gusting 4 3.9
2019-Dec-05 13:38 235 6 gusting 10 3.9
2019-Dec-05 13:33 219 1 gusting 2 3.9
2019-Dec-05 13:28 318 5 gusting 6 3.9
2019-Dec-05 13:23 207 0 gusting 2 3.3
2019-Dec-05 13:18 236 3.3
2019-Dec-05 13:13 334 6 gusting 13 3.3
2019-Dec-05 13:08 324 2 gusting 4 2.8
2019-Dec-05 13:03 219 2.8
2019-Dec-05 12:58 240 2.8
2019-Dec-05 12:53 215 2.8
2019-Dec-05 12:48 223 2.2
2019-Dec-05 12:43 204 2.2
2019-Dec-05 12:38 229 2.2
2019-Dec-05 12:33 249 2.2
2019-Dec-05 12:28 279 0 gusting 2 2.2
2019-Dec-05 12:23 222 2 gusting 2 2.2
2019-Dec-05 12:18 305 4 gusting 6 2.2
2019-Dec-05 12:13 228 2.2
2019-Dec-05 12:08 188 2.2
2019-Dec-05 12:03 253 2 gusting 4 2.2
2019-Dec-05 11:58 212 2.2
2019-Dec-05 11:53 215 2.8
2019-Dec-05 11:48 214 2.8
2019-Dec-05 11:43 194 2.8
2019-Dec-05 11:38 201 2.8
2019-Dec-05 11:33 273 2.8
2019-Dec-05 11:28 311 3 gusting 4 2.2
2019-Dec-05 11:23 259 1 gusting 2 2.2
2019-Dec-05 11:18 171 0 gusting 2 2.2
2019-Dec-05 11:13 226 2.2
2019-Dec-05 11:08 217 2.2
2019-Dec-05 11:03 285 1 gusting 2 2.2
2019-Dec-05 10:58 236 2.2
2019-Dec-05 10:53 293 4 gusting 6 1.7
2019-Dec-05 10:48 329 5 gusting 6 1.7
2019-Dec-05 10:43 292 3 gusting 6 1.7
2019-Dec-05 10:38 283 1.1
2019-Dec-05 10:33 225 1 gusting 2 1.1
2019-Dec-05 10:28 302 5 gusting 6 1.1
2019-Dec-05 10:23 221 1.1
2019-Dec-05 10:18 254 0 gusting 2 0.6
2019-Dec-05 10:13 219 0.6
2019-Dec-05 10:08 201 0.6
2019-Dec-05 10:03 229 0.6
2019-Dec-05 09:58 226 0.6
2019-Dec-05 09:53 212 0.6
2019-Dec-05 09:48 225 0.6
2019-Dec-05 09:43 273 0 gusting 2 0.6
2019-Dec-05 09:38 231 0.6
2019-Dec-05 09:33 222 0.6
2019-Dec-05 09:28 242 0.6
2019-Dec-05 09:23 225 0.6
2019-Dec-05 09:18 242 0.6
2019-Dec-05 09:13 247 1.1
2019-Dec-05 09:08 229 1.1
2019-Dec-05 09:03 211 1.1
2019-Dec-05 08:58 211 1.1
2019-Dec-05 08:53 225 1.1
2019-Dec-05 08:48 210 1.1
2019-Dec-05 08:43 217 1.1
2019-Dec-05 08:38 211 1.1
2019-Dec-05 08:33 212 0 gusting 2 1.1
2019-Dec-05 08:28 220 1.1
2019-Dec-05 08:23 237 1.1
2019-Dec-05 08:18 233 1.1
2019-Dec-05 08:13 227 1.1
2019-Dec-05 08:08 279 1.1
2019-Dec-05 08:03 207 1.1
2019-Dec-05 07:58 253 1.1
2019-Dec-05 07:53 246 1.1
2019-Dec-05 07:48 238 1.7
2019-Dec-05 07:43 262 1.7
2019-Dec-05 07:38 219 1.7
2019-Dec-05 07:33 201 1.7
2019-Dec-05 07:28 229 1.7
2019-Dec-05 07:23 199 1.7
2019-Dec-05 07:18 236 1.7
2019-Dec-05 07:13 215 1.7
2019-Dec-05 07:08 187 1.7
2019-Dec-05 07:03 245 1.7
2019-Dec-05 06:58 263 2.2
2019-Dec-05 06:53 222 2.2
2019-Dec-05 06:48 217 2.2
2019-Dec-05 06:43 199 2.2
2019-Dec-05 06:38 209 2.2
2019-Dec-05 06:33 216 2.2
2019-Dec-05 06:28 223 2.2
2019-Dec-05 06:23 223 2.8
2019-Dec-05 06:18 223 2.8
2019-Dec-05 06:13 233 2.8
2019-Dec-05 06:08 210 2.8
2019-Dec-05 06:03 210 2.8
2019-Dec-05 05:58 244 2.8
2019-Dec-05 05:53 221 2.8
2019-Dec-05 05:48 230 0 gusting 2 2.8
2019-Dec-05 05:43 200 1 gusting 2 2.8
2019-Dec-05 05:38 215 2.8
2019-Dec-05 05:33 251 2.8
2019-Dec-05 05:28 235 2.8
2019-Dec-05 05:23 214 2.8
2019-Dec-05 05:18 223 2.8
2019-Dec-05 05:13 208 2.8
2019-Dec-05 05:08 211 2.8
2019-Dec-05 05:03 224 2.8
2019-Dec-05 04:58 212 2.8
2019-Dec-05 04:53 192 1 gusting 2 2.8
2019-Dec-05 04:48 224 2.8
2019-Dec-05 04:43 229 2.8
2019-Dec-05 04:38 233 2.8
2019-Dec-05 04:33 203 2.8
2019-Dec-05 04:28 222 2.8
2019-Dec-05 04:23 222 2.8
2019-Dec-05 04:18 207 3.3
2019-Dec-05 04:13 211 3.3
2019-Dec-05 04:08 230 0 gusting 2 3.3
2019-Dec-05 04:03 238 3.3
2019-Dec-05 03:58 228 1 gusting 4 3.3
2019-Dec-05 03:53 299 3.3
2019-Dec-05 03:48 281 0 gusting 2 3.3
2019-Dec-05 03:43 212 1 gusting 4 2.8
2019-Dec-05 03:38 229 2.8
2019-Dec-05 03:33 182 0 gusting 2 2.8
2019-Dec-05 03:28 263 0 gusting 2 2.8
2019-Dec-05 03:23 206 2.8
2019-Dec-05 03:18 234 1 gusting 2 2.8
2019-Dec-05 03:13 227 2.8
2019-Dec-05 03:08 217 0 gusting 2 2.8
2019-Dec-05 03:03 208 2 gusting 4 2.8
2019-Dec-05 02:58 203 3.3
2019-Dec-05 02:53 227 3.3
2019-Dec-05 02:48 217 3.3
2019-Dec-05 02:43 220 3.3
2019-Dec-05 02:38 217 3.3
2019-Dec-05 02:33 244 3.3
2019-Dec-05 02:28 197 3.3
2019-Dec-05 02:23 194 3.3
2019-Dec-05 02:18 211 3.3
2019-Dec-05 02:13 191 0 gusting 2 3.3
2019-Dec-05 02:08 219 3.3
2019-Dec-05 02:03 226 3.3
2019-Dec-05 01:58 205 3.3
2019-Dec-05 01:53 272 0 gusting 2 3.3
2019-Dec-05 01:48 206 3.3
2019-Dec-05 01:43 220 3.3
2019-Dec-05 01:38 209 3.3
2019-Dec-05 01:33 215 3.3
2019-Dec-05 01:28 205 3.3
2019-Dec-05 01:23 213 0 gusting 2 3.3
2019-Dec-05 01:18 227 3.3
2019-Dec-05 01:13 241 2.8
2019-Dec-05 01:08 227 2.8
2019-Dec-05 01:03 236 2.8
2019-Dec-05 00:58 264 0 gusting 2 2.8
2019-Dec-05 00:53 270 1 gusting 4 2.8
2019-Dec-05 00:48 222 2.8
2019-Dec-05 00:43 209 2.8
2019-Dec-05 00:38 210 2.8
2019-Dec-05 00:33 218 2.8
2019-Dec-05 00:28 220 2.8
2019-Dec-05 00:23 248 2.8
2019-Dec-05 00:18 216 2.8
2019-Dec-05 00:13 214 2.2
2019-Dec-05 00:08 214 2.2
2019-Dec-05 00:03 215 2.2
2019-Dec-04 23:58 208 2.2
2019-Dec-04 23:53 202 2.2
2019-Dec-04 23:48 210 2.2
2019-Dec-04 23:43 216 2.2
2019-Dec-04 23:38 208 2.2
2019-Dec-04 23:33 212 2.8
2019-Dec-04 23:28 210 2.8
2019-Dec-04 23:23 210 2.8
2019-Dec-04 23:18 222 2.8
2019-Dec-04 23:13 211 2.8
2019-Dec-04 23:08 253 3.3
2019-Dec-04 23:03 212 3.3
2019-Dec-04 22:58 262 3.3
2019-Dec-04 22:53 274 0 gusting 4 3.3
2019-Dec-04 22:48 216 3.3
2019-Dec-04 22:43 220 3.3
2019-Dec-04 22:38 219 3.3
2019-Dec-04 22:33 208 0 gusting 2 3.3
2019-Dec-04 22:28 196 1 gusting 4 3.3
2019-Dec-04 22:23 210 3.3
2019-Dec-04 22:18 205 3 gusting 4 3.3
2019-Dec-04 22:13 215 3.3
2019-Dec-04 22:08 229 3.9
2019-Dec-04 22:03 205 3.9
2019-Dec-04 21:58 245 0 gusting 2 3.9
2019-Dec-04 21:53 221 0 gusting 2 3.9
2019-Dec-04 21:48 225 0 gusting 2 3.9
2019-Dec-04 21:43 234 3 gusting 4 3.9
2019-Dec-04 21:38 291 3 gusting 6 3.9
2019-Dec-04 21:33 185 3.9
2019-Dec-04 21:28 215 3.9
2019-Dec-04 21:23 266 1 gusting 2 3.9
2019-Dec-04 21:18 222 3.9
2019-Dec-04 21:13 228 3.9
2019-Dec-04 21:08 222 3.9
2019-Dec-04 21:03 264 4 gusting 6 3.9
2019-Dec-04 20:58 214 0 gusting 2 3.9
2019-Dec-04 20:53 227 3.9
2019-Dec-04 20:48 231 3.9
2019-Dec-04 20:43 211 3.9
2019-Dec-04 20:38 198 3.9
2019-Dec-04 20:33 268 3.9
2019-Dec-04 20:28 254 3.9
2019-Dec-04 20:23 234 0 gusting 2 3.9
2019-Dec-04 20:18 295 3.9
2019-Dec-04 20:13 227 3.9
2019-Dec-04 20:08 211 3.9
2019-Dec-04 20:03 218 1 gusting 2 3.9
2019-Dec-04 19:58 267 3.9
2019-Dec-04 19:53 284 2 gusting 4 3.9
2019-Dec-04 19:48 221 3.9
2019-Dec-04 19:43 272 3.9
2019-Dec-04 19:38 214 3.9
2019-Dec-04 19:33 241 0 gusting 2 3.9
2019-Dec-04 19:28 204 3.9
2019-Dec-04 19:23 213 3.9
2019-Dec-04 19:18 240 3.9
2019-Dec-04 19:13 208 3.9
2019-Dec-04 19:08 214 3.9
2019-Dec-04 19:03 211 3.9
2019-Dec-04 18:58 319 0 gusting 4 3.9
2019-Dec-04 18:53 243 3.9
2019-Dec-04 18:48 240 0 gusting 2 3.9
2019-Dec-04 18:43 224 3.9
2019-Dec-04 18:38 234 0 gusting 2 3.9
2019-Dec-04 18:33 206 3.9
2019-Dec-04 18:28 278 0 gusting 2 3.9
2019-Dec-04 18:23 205 3.9
2019-Dec-04 18:18 218 2 gusting 4 3.9
2019-Dec-04 18:13 307 1 gusting 2 3.9
2019-Dec-04 18:08 297 5 gusting 6 3.9
2019-Dec-04 18:03 319 2 gusting 4 3.9
2019-Dec-04 17:58 217 0 gusting 2 4.4
2019-Dec-04 17:53 246 4.4
2019-Dec-04 17:48 225 2 gusting 4 4.4
2019-Dec-04 17:43 213 4.4
2019-Dec-04 17:38 194 0 gusting 2 4.4
2019-Dec-04 17:33 178 4.4
2019-Dec-04 17:28 211 4.4
2019-Dec-04 17:23 287 3 gusting 6 4.4
2019-Dec-04 17:18 216 0 gusting 2 4.4
2019-Dec-04 17:13 183 4.4
2019-Dec-04 17:08 183 4.4
2019-Dec-04 17:03 250 0 gusting 2 4.4
2019-Dec-04 16:58 213 4.4
2019-Dec-04 16:53 201 3.9
2019-Dec-04 16:48 194 0 gusting 2 3.9
2019-Dec-04 16:43 157 0 gusting 2 3.9
2019-Dec-04 16:38 221 0 gusting 2 3.9
2019-Dec-04 16:33 236 3.9
2019-Dec-04 16:28 294 0 gusting 2 3.9
2019-Dec-04 16:23 023 0 gusting 2 3.9
2019-Dec-04 16:18 174 3.9
2019-Dec-04 16:13 270 2 gusting 4 3.9
2019-Dec-04 16:08 290 3 gusting 4 3.9
2019-Dec-04 16:03 264 3 gusting 6 3.9
2019-Dec-04 15:58 223 0 gusting 2 3.9
2019-Dec-04 15:53 211 1 gusting 2 3.9
2019-Dec-04 15:48 255 0 gusting 2 3.9
2019-Dec-04 15:43 285 0 gusting 2 3.9
2019-Dec-04 15:38 260 3.9
2019-Dec-04 15:33 259 3.9
2019-Dec-04 15:28 185 3.9
2019-Dec-04 15:23 229 3.9
2019-Dec-04 15:18 198 3.9
2019-Dec-04 15:13 210 0 gusting 2 3.9
2019-Dec-04 15:08 242 0 gusting 2 3.3
2019-Dec-04 15:03 018 0 gusting 2 3.3
2019-Dec-04 14:58 221 3.3
2019-Dec-04 14:53 225 3.3
2019-Dec-04 14:48 320 5 gusting 6 3.3
2019-Dec-04 14:43 228 2.8
2019-Dec-04 14:38 230 2.8
2019-Dec-04 14:33 284 0 gusting 2 2.8
2019-Dec-04 14:28 222 2.8
2019-Dec-04 14:23 236 2 gusting 4 2.8
2019-Dec-04 14:18 201 2.8
2019-Dec-04 14:13 286 1 gusting 2 2.8
2019-Dec-04 14:08 239 2.2
2019-Dec-04 14:03 222 2.2
2019-Dec-04 13:58 236 2 gusting 4 2.2
2019-Dec-04 13:53 199 2.2
2019-Dec-04 13:48 205 2.2
2019-Dec-04 13:43 181 0 gusting 2 1.7
2019-Dec-04 13:38 236 1.7
2019-Dec-04 13:33 212 1.7
2019-Dec-04 13:28 229 1 gusting 2 1.7
2019-Dec-04 13:23 216 1.7
2019-Dec-04 13:18 208 1.1
2019-Dec-04 13:13 221 1.1
2019-Dec-04 13:08 217 1.1
2019-Dec-04 13:03 212 1.1
2019-Dec-04 12:58 201 1.1
2019-Dec-04 12:53 212 0.6
2019-Dec-04 12:48 199 0.6
2019-Dec-04 12:43 215 0.6
2019-Dec-04 12:38 203 0.6
2019-Dec-04 12:33 215 -0.0
2019-Dec-04 12:28 203 -0.0
2019-Dec-04 12:23 206 -0.0
2019-Dec-04 12:18 213 -0.0
2019-Dec-04 12:13 213 -0.0
2019-Dec-04 12:08 216 -0.0
2019-Dec-04 12:03 215 -0.0
2019-Dec-04 11:58 209 -0.0
2019-Dec-04 11:53 208 -0.0
2019-Dec-04 11:48 211 -0.0
2019-Dec-04 11:43 210 -0.0
2019-Dec-04 11:38 211 -0.0
2019-Dec-04 11:33 214 -0.0
2019-Dec-04 11:28 202 -0.0
2019-Dec-04 11:23 215 -0.0
2019-Dec-04 11:18 223 -0.0
2019-Dec-04 11:13 217 -0.0
2019-Dec-04 11:08 221 -0.0
2019-Dec-04 11:03 208 -0.0
2019-Dec-04 10:58 204 -0.0
2019-Dec-04 10:53 204 -0.0
2019-Dec-04 10:48 204 -0.0
2019-Dec-04 10:43 215 -0.0
2019-Dec-04 10:38 214 -0.0
2019-Dec-04 10:33 214 -0.0
2019-Dec-04 10:28 207 -0.0
2019-Dec-04 10:23 206 -0.0
2019-Dec-04 10:18 215 -0.0
2019-Dec-04 10:13 222 -0.0
2019-Dec-04 10:08 213 -0.0
2019-Dec-04 10:03 214 -0.0
2019-Dec-04 09:58 195 -0.0
2019-Dec-04 09:53 210 -0.0
2019-Dec-04 09:48 201 -0.0
2019-Dec-04 09:43 215 -0.0
2019-Dec-04 09:38 215 -0.0
2019-Dec-04 09:33 204 -0.0
2019-Dec-04 09:28 216 -0.0
2019-Dec-04 09:23 215 -0.0
2019-Dec-04 09:18 229 -0.0
2019-Dec-04 09:13 221 -0.0
2019-Dec-04 09:08 219 -0.0
2019-Dec-04 09:03 216 -0.0
2019-Dec-04 08:58 215 -0.0
2019-Dec-04 08:53 208 -0.0
2019-Dec-04 08:48 208 -0.0
2019-Dec-04 08:43 218 -0.0
2019-Dec-04 08:38 245 0 gusting 2 -0.0
2019-Dec-04 08:33 279 -0.0
2019-Dec-04 08:28 351 1 gusting 2 -0.6
2019-Dec-04 08:23 217 -0.6
2019-Dec-04 08:18 212 -0.6
2019-Dec-04 08:13 236 -0.6
2019-Dec-04 08:08 195 0 gusting 2 -0.6
2019-Dec-04 08:03 222 -0.6
2019-Dec-04 07:58 209 -0.6
2019-Dec-04 07:53 213 -1.1
2019-Dec-04 07:48 232 -1.1
2019-Dec-04 07:43 201 -1.1
2019-Dec-04 07:38 213 -1.1
2019-Dec-04 07:33 246 -1.1
2019-Dec-04 07:28 208 -1.1
2019-Dec-04 07:23 229 -1.1
2019-Dec-04 07:18 212 -1.1
2019-Dec-04 07:13 216 -1.1
2019-Dec-04 07:08 221 -1.1
2019-Dec-04 07:03 216 -1.1
2019-Dec-04 06:58 211 -1.1
2019-Dec-04 06:53 262 -0.6
2019-Dec-04 06:48 223 -0.6
2019-Dec-04 06:43 215 -0.6
2019-Dec-04 06:38 226 -0.6
2019-Dec-04 06:33 257 -0.6
2019-Dec-04 06:28 251 0 gusting 2 -0.6
2019-Dec-04 06:23 258 0 gusting 2 -0.0
2019-Dec-04 06:18 215 -0.0
2019-Dec-04 06:13 249 -0.0
2019-Dec-04 06:08 289 0 gusting 2 -0.0
2019-Dec-04 06:03 245 0 gusting 2 -0.0
2019-Dec-04 05:58 197 -0.0
2019-Dec-04 05:53 270 0 gusting 2 -0.0
2019-Dec-04 05:48 198 -0.0
2019-Dec-04 05:43 237 -0.6
2019-Dec-04 05:38 209 -0.6
2019-Dec-04 05:33 220 0 gusting 2 -0.6
2019-Dec-04 05:28 256 -0.6
2019-Dec-04 05:23 210 -1.1
2019-Dec-04 05:18 210 -1.1
2019-Dec-04 05:13 235 -1.1
2019-Dec-04 05:08 209 -1.1
2019-Dec-04 05:03 209 -0.6
2019-Dec-04 04:58 205 -0.6
2019-Dec-04 04:53 210 -0.6
2019-Dec-04 04:48 209 -0.6
2019-Dec-04 04:43 235 -0.6
2019-Dec-04 04:38 219 -0.6
2019-Dec-04 04:33 212 -0.6
2019-Dec-04 04:28 241 -0.6
2019-Dec-04 04:23 225 0 gusting 2 -0.6
2019-Dec-04 04:18 271 0 gusting 2 -0.6
2019-Dec-04 04:13 265 -0.6
2019-Dec-04 04:08 123 -0.6
2019-Dec-04 04:03 280 0 gusting 2 -0.6
2019-Dec-04 03:58 230 -0.6
2019-Dec-04 03:53 255 0 gusting 2 -0.0
2019-Dec-04 03:48 210 -0.0
2019-Dec-04 03:43 155 -0.0
2019-Dec-04 03:38 252 0 gusting 2 -0.0
2019-Dec-04 03:33 196 -0.0
2019-Dec-04 03:28 228 -0.0
2019-Dec-04 03:23 227 0 gusting 2 -0.0
2019-Dec-04 03:18 212 -0.0
2019-Dec-04 03:13 285 2 gusting 4 -0.0
2019-Dec-04 03:08 293 4 gusting 6 -0.0
2019-Dec-04 03:03 331 3 gusting 4 -0.0
2019-Dec-04 02:58 298 4 gusting 6 -0.0
2019-Dec-04 02:53 267 2 gusting 4 -0.0
2019-Dec-04 02:48 317 0 gusting 2 -0.0
2019-Dec-04 02:43 235 0 gusting 2 -0.0
2019-Dec-04 02:38 357 0 gusting 2 -0.0
2019-Dec-04 02:33 199 1 gusting 2 -0.0
2019-Dec-04 02:28 273 6 gusting 8 -0.0
2019-Dec-04 02:23 204 -0.0
2019-Dec-04 02:18 298 2 gusting 4 -0.0
2019-Dec-04 02:13 205 -0.0
2019-Dec-04 02:08 292 2 gusting 4 -0.0
2019-Dec-04 02:03 298 3 gusting 4 -0.0
2019-Dec-04 01:58 021 0 gusting 2 -0.0
2019-Dec-04 01:53 338 3 gusting 4 -0.0
2019-Dec-04 01:48 263 2 gusting 4 -0.0
2019-Dec-04 01:43 228 -0.0
2019-Dec-04 01:38 238 0 gusting 2 -0.0
2019-Dec-04 01:33 224 0 gusting 2 -0.0
2019-Dec-04 01:28 336 1 gusting 2 -0.0
2019-Dec-04 01:23 253 0 gusting 2 -0.0
2019-Dec-04 01:18 269 -0.0
2019-Dec-04 01:13 255 2 gusting 4 -0.0
2019-Dec-04 01:08 213 -0.0
2019-Dec-04 01:03 310 2 gusting 4 -0.0
2019-Dec-04 00:58 190 -0.0
2019-Dec-04 00:53 265 -0.0
2019-Dec-04 00:48 231 -0.0
2019-Dec-04 00:43 227 -0.0
2019-Dec-04 00:38 211 0 gusting 2 -0.0
2019-Dec-04 00:33 267 0 gusting 2 0.6
2019-Dec-04 00:28 249 1 gusting 2 0.6
2019-Dec-04 00:23 313 6 gusting 13 0.6
2019-Dec-04 00:18 231 0.6
2019-Dec-04 00:13 252 6 gusting 8 0.6
2019-Dec-04 00:08 305 3 gusting 6 0.6
2019-Dec-04 00:03 267 0 gusting 2 0.6
2019-Dec-03 23:58 266 6 gusting 8 0.6
2019-Dec-03 23:53 312 0.6
2019-Dec-03 23:48 290 0 gusting 2 0.6
2019-Dec-03 23:43 244 2 gusting 4 0.6
2019-Dec-03 23:38 355 0 gusting 2 0.6
2019-Dec-03 23:33 250 2 gusting 2 0.6
2019-Dec-03 23:28 222 0.6
2019-Dec-03 23:23 225 2 gusting 4 0.6
2019-Dec-03 23:18 007 1 gusting 2 0.6
2019-Dec-03 23:13 209 3 gusting 4 1.1
2019-Dec-03 23:08 234 0 gusting 2 1.1
2019-Dec-03 23:03 344 2 gusting 4 1.1
2019-Dec-03 22:58 291 6 gusting 10 1.1
2019-Dec-03 22:53 275 2 gusting 4 1.1
2019-Dec-03 22:48 123 1 gusting 2 1.1
2019-Dec-03 22:43 278 5 gusting 6 1.1
2019-Dec-03 22:38 209 0 gusting 2 1.1
2019-Dec-03 22:33 319 0 gusting 2 1.1
2019-Dec-03 22:28 256 0 gusting 2 1.1
2019-Dec-03 22:23 310 1 gusting 2 1.1
2019-Dec-03 22:18 210 1.1
2019-Dec-03 22:13 311 2 gusting 4 1.1
2019-Dec-03 22:08 270 4 gusting 6 1.1
2019-Dec-03 22:03 304 1 gusting 2 1.7
2019-Dec-03 21:58 020 0 gusting 2 1.7
2019-Dec-03 21:53 125 3 gusting 6 1.7
2019-Dec-03 21:48 224 2 gusting 4 1.7
2019-Dec-03 21:43 353 2 gusting 4 1.7
2019-Dec-03 21:38 281 2 gusting 4 1.7
2019-Dec-03 21:33 314 2 gusting 6 1.7
2019-Dec-03 21:28 275 1.7
2019-Dec-03 21:23 009 2 gusting 4 1.7
2019-Dec-03 21:18 212 0 gusting 2 2.2
2019-Dec-03 21:13 210 0 gusting 2 2.2
2019-Dec-03 21:08 336 1 gusting 2 2.2
2019-Dec-03 21:03 235 2.8
2019-Dec-03 20:58 203 1 gusting 2 2.8
2019-Dec-03 20:53 305 2 gusting 4 2.8
2019-Dec-03 20:48 260 4 gusting 8 2.8
2019-Dec-03 20:43 303 1 gusting 2 2.8
2019-Dec-03 20:38 287 9 gusting 10 2.8
2019-Dec-03 20:33 335 6 gusting 8 2.8
2019-Dec-03 20:28 319 4 gusting 4 2.8
2019-Dec-03 20:23 275 4 gusting 6 2.8
2019-Dec-03 20:18 247 4 gusting 6 2.8
2019-Dec-03 20:13 334 3 gusting 4 2.8
2019-Dec-03 20:08 071 0 gusting 2 3.3
2019-Dec-03 20:03 293 2 gusting 2 3.3
2019-Dec-03 19:58 214 3 gusting 6 3.3
2019-Dec-03 19:53 240 4 gusting 6 3.3
2019-Dec-03 19:48 262 4 gusting 6 3.3
2019-Dec-03 19:43 015 1 gusting 2 3.3
2019-Dec-03 19:38 186 6 gusting 8 3.3
2019-Dec-03 19:33 325 6 gusting 10 3.3
2019-Dec-03 19:28 213 5 gusting 8 3.3
2019-Dec-03 19:23 307 2 gusting 4 3.3
2019-Dec-03 19:18 109 1 gusting 2 3.3
2019-Dec-03 19:13 290 6 gusting 10 2.8
2019-Dec-03 19:08 167 2.8
2019-Dec-03 19:03 343 4 gusting 6 2.8
2019-Dec-03 18:58 301 4 gusting 6 2.8
2019-Dec-03 18:53 294 6 gusting 8 2.8
2019-Dec-03 18:48 331 1 gusting 2 2.8
2019-Dec-03 18:43 247 4 gusting 6 2.8
2019-Dec-03 18:38 328 2 gusting 4 2.8
2019-Dec-03 18:33 309 6 gusting 8 2.2
2019-Dec-03 18:28 308 3 gusting 6 2.2
2019-Dec-03 18:23 036 2 gusting 4 2.2
2019-Dec-03 18:18 260 2 gusting 4 2.2
2019-Dec-03 18:13 223 6 gusting 10 2.2
2019-Dec-03 18:08 314 8 gusting 10 2.2
2019-Dec-03 18:03 338 6 gusting 8 2.2
2019-Dec-03 17:58 173 2 gusting 4 1.7
2019-Dec-03 17:53 229 0 gusting 2 1.7
2019-Dec-03 17:48 198 1.7
2019-Dec-03 17:43 145 3 gusting 4 1.7
2019-Dec-03 17:38 260 0 gusting 2 1.7
2019-Dec-03 17:33 034 2 gusting 4 2.2
2019-Dec-03 17:28 295 5 gusting 10 2.2
2019-Dec-03 17:23 296 1 gusting 2 1.7
2019-Dec-03 17:18 310 2 gusting 4 1.7
2019-Dec-03 17:13 242 4 gusting 6 1.7
2019-Dec-03 17:08 284 3 gusting 4 1.7
2019-Dec-03 17:03 351 3 gusting 6 1.7